Terminal Aerodrome Forecast
Issued by NWS Mt. Holly, NJ

Current Version | Previous Version | Text Only | Print | Product List | Glossary On
Versions: 1 2 3 4 5 6 7 8 9 10 11 12 13 14
000
FTUS41 KPHI 042321
TAFTTN
TAF
KTTN 042321Z 0500/0524 21008KT P6SM SCT050
     FM050400 VRB03KT P6SM SCT050
     FM051200 25006KT P6SM SCT050
     FM051800 29006KT P6SM BKN050
      TEMPO 0519/0523 -SHRA OVC035
     FM052300 VRB03KT P6SM -SHRA OVC035=

USA.gov is the U.S. government's official web portal to all federal, state and local government web resources and services.